Time;durP1;ratioP1;P1;durP2;ratioP2;P2;SDS_P1;SDS_P2;PMS_P1;PMS_P2;Temp;Humidity;BMP_temperature;BMP_pressure;BME280_temperature;BME280_humidity;BME280_pressure;Samples;Min_cycle;Max_cycle;Signal;HPM_P1;HPM_P2
2022/07/01 02:00:34;;;;;;;1.15;1.00;;;24.10;61.00;;;;;;5062741;28;20028;-74
2022/07/01 02:03:01;;;;;;;1.05;0.90;;;24.10;61.20;;;;;;5049081;28;20083;-74
2022/07/01 02:09:53;;;;;;;1.40;1.00;;;24.10;60.90;;;;;;5054469;28;20059;-74
2022/07/01 02:12:39;;;;;;;1.25;1.00;;;24.10;60.90;;;;;;5049661;28;20055;-74
2022/07/01 02:15:07;;;;;;;2.15;1.08;;;24.10;60.90;;;;;;5047994;28;20136;-74
2022/07/01 02:17:36;;;;;;;1.55;1.00;;;24.10;61.10;;;;;;5048375;28;20052;-74
2022/07/01 02:20:03;;;;;;;1.42;0.90;;;24.10;61.60;;;;;;5048486;28;20064;-74
2022/07/01 02:22:30;;;;;;;1.10;1.00;;;24.10;61.00;;;;;;5048154;28;20045;-74
2022/07/01 02:24:56;;;;;;;2.03;1.00;;;24.10;60.90;;;;;;5064957;28;20055;-74
2022/07/01 02:27:23;;;;;;;1.52;1.10;;;25.90;62.00;;;;;;5068262;28;20156;-74
2022/07/01 02:29:50;;;;;;;1.25;1.00;;;24.10;60.90;;;;;;5067998;28;20056;-74
2022/07/01 02:32:16;;;;;;;1.83;1.00;;;24.20;60.90;;;;;;5067428;28;20410;-74
2022/07/01 02:34:44;;;;;;;1.38;1.10;;;24.10;60.90;;;;;;5052946;28;20128;-74
2022/07/01 02:37:11;;;;;;;1.58;1.10;;;24.10;60.90;;;;;;5048057;28;20092;-74
2022/07/01 02:39:38;;;;;;;0.82;0.82;;;24.00;60.80;;;;;;5047907;28;20147;-74
2022/07/01 02:44:49;;;;;;;0.95;0.80;;;24.10;60.80;;;;;;5064930;28;20133;-74
2022/07/01 02:47:16;;;;;;;5.40;1.10;;;24.00;60.90;;;;;;5067866;28;20486;-74
2022/07/01 02:49:44;;;;;;;1.08;0.82;;;24.00;60.80;;;;;;5067845;28;20139;-74
2022/07/01 02:52:11;;;;;;;1.23;0.90;;;24.00;60.80;;;;;;5067995;28;20061;-74
2022/07/01 02:54:38;;;;;;;0.85;0.85;;;24.00;60.80;;;;;;5066885;28;20132;-74
2022/07/01 02:57:05;;;;;;;1.35;1.13;;;23.90;60.70;;;;;;5065586;28;20588;-74
2022/07/01 02:59:31;;;;;;;0.93;0.75;;;24.00;60.80;;;;;;5067687;28;20091;-74
2022/07/01 03:01:58;;;;;;;1.17;0.93;;;24.00;60.80;;;;;;5068205;28;20144;-74
2022/07/01 03:04:25;;;;;;;1.10;1.00;;;24.00;60.80;;;;;;5066700;28;20052;-74
2022/07/01 03:06:53;;;;;;;1.25;1.00;;;24.00;60.80;;;;;;5065971;28;20128;-74
2022/07/01 03:09:19;;;;;;;1.38;0.85;;;24.00;60.70;;;;;;5047738;28;20052;-74
2022/07/01 03:11:46;;;;;;;1.50;0.98;;;23.90;60.70;;;;;;5047627;28;20052;-74
2022/07/01 03:14:13;;;;;;;1.02;0.82;;;23.90;60.60;;;;;;5057025;28;20052;-74
2022/07/01 03:16:40;;;;;;;1.65;1.02;;;23.90;60.60;;;;;;5067648;28;20118;-74
2022/07/01 03:19:08;;;;;;;1.10;0.90;;;23.90;60.60;;;;;;5067665;28;20569;-74
2022/07/01 03:21:35;;;;;;;1.05;0.93;;;23.90;60.70;;;;;;5067420;28;20614;-74
2022/07/01 03:24:03;;;;;;;0.95;0.70;;;23.90;60.70;;;;;;5058664;28;20120;-74
2022/07/01 03:26:30;;;;;;;1.33;0.95;;;23.90;60.60;;;;;;5047520;28;20401;-74
2022/07/01 03:28:57;;;;;;;0.93;0.90;;;23.90;60.60;;;;;;5046921;28;20067;-74
2022/07/01 03:31:23;;;;;;;1.00;0.90;;;23.90;60.60;;;;;;5047512;28;20736;-74
2022/07/01 03:33:50;;;;;;;1.48;1.00;;;23.90;60.60;;;;;;5053294;28;20044;-74
2022/07/01 03:36:17;;;;;;;0.88;0.88;;;23.90;60.60;;;;;;5067245;28;20049;-74
2022/07/01 03:38:44;;;;;;;3.60;0.93;;;23.80;60.60;;;;;;5067259;28;20064;-74
2022/07/01 03:41:12;;;;;;;1.00;0.90;;;23.80;60.60;;;;;;5067341;28;20561;-74
2022/07/01 03:43:39;;;;;;;0.80;0.80;;;23.90;60.60;;;;;;5064417;28;20123;-74
2022/07/01 03:46:05;;;;;;;0.70;0.70;;;23.80;60.60;;;;;;5046426;28;20053;-74
2022/07/01 03:48:33;;;;;;;1.00;0.90;;;23.80;60.60;;;;;;5060096;28;20055;-74
2022/07/01 03:50:59;;;;;;;1.10;1.00;;;23.80;60.60;;;;;;5071229;28;20478;-74
2022/07/01 03:56:11;;;;;;;1.03;0.80;;;23.80;60.60;;;;;;5071096;28;20045;-74
2022/07/01 03:58:38;;;;;;;0.98;0.88;;;23.80;60.60;;;;;;5070770;28;20054;-74
2022/07/01 04:01:05;;;;;;;0.68;0.68;;;23.80;60.60;;;;;;5071761;28;20059;-74
2022/07/01 04:03:31;;;;;;;1.67;0.90;;;23.70;60.60;;;;;;5069743;28;20408;-74
2022/07/01 04:05:58;;;;;;;1.15;0.75;;;23.70;60.60;;;;;;5070894;28;20091;-74
2022/07/01 04:08:25;;;;;;;0.80;0.80;;;23.70;60.50;;;;;;5070585;28;20128;-74
2022/07/01 04:10:53;;;;;;;1.25;0.90;;;23.70;60.50;;;;;;5070863;28;20060;-74
2022/07/01 04:13:21;;;;;;;0.73;0.73;;;23.70;60.50;;;;;;5068946;28;20139;-74
2022/07/01 04:15:48;;;;;;;0.90;0.82;;;23.70;60.50;;;;;;5050862;28;20195;-74
2022/07/01 04:18:15;;;;;;;1.52;0.95;;;23.70;60.50;;;;;;5050649;28;20140;-74
2022/07/01 04:20:42;;;;;;;1.10;1.00;;;23.70;60.50;;;;;;5050230;28;20057;-74
2022/07/01 04:23:07;;;;;;;1.00;0.90;;;23.70;60.50;;;;;;5049762;28;20604;-74
2022/07/01 04:25:34;;;;;;;1.38;1.08;;;23.70;60.50;;;;;;5069867;28;20143;-74
2022/07/01 04:28:02;;;;;;;0.60;0.60;;;23.70;60.60;;;;;;5070177;28;20421;-74
2022/07/01 04:30:30;;;;;;;0.80;0.80;;;23.70;60.50;;;;;;5070453;28;20149;-74
2022/07/01 04:32:56;;;;;;;1.45;0.90;;;23.70;61.10;;;;;;5071321;28;20051;-74
2022/07/01 04:35:23;;;;;;;1.25;0.85;;;23.60;60.50;;;;;;5054019;28;20131;-74
2022/07/01 04:37:50;;;;;;;0.93;0.68;;;23.70;60.50;;;;;;5070326;28;20067;-74
2022/07/01 04:40:17;;;;;;;1.35;1.00;;;23.60;60.50;;;;;;5070052;28;20128;-74
2022/07/01 04:42:42;;;;;;;0.70;0.70;;;23.70;60.50;;;;;;5070036;28;20131;-74
2022/07/01 04:45:10;;;;;;;1.38;0.90;;;23.00;60.20;;;;;;5068975;28;20143;-74
2022/07/01 04:47:39;;;;;;;1.30;0.90;;;23.60;60.50;;;;;;5069904;28;20048;-74
2022/07/01 04:50:06;;;;;;;1.15;0.98;;;23.70;60.50;;;;;;5070142;28;20063;-74
2022/07/01 04:52:33;;;;;;;1.10;1.00;;;23.60;60.40;;;;;;5069867;28;20044;-74
2022/07/01 04:54:59;;;;;;;1.20;0.90;;;23.60;60.50;;;;;;5069220;28;20538;-74
2022/07/01 04:57:26;;;;;;;1.25;1.15;;;23.60;60.50;;;;;;5070771;28;20036;-74
2022/07/01 04:59:53;;;;;;;1.10;1.00;;;23.60;60.50;;;;;;5069388;28;20052;-74
2022/07/01 05:02:19;;;;;;;1.10;1.00;;;23.60;60.50;;;;;;5068434;28;20045;-74
2022/07/01 05:04:48;;;;;;;1.13;1.00;;;23.60;60.50;;;;;;5069387;28;20049;-74
2022/07/01 05:10:09;;;;;;;1.10;0.90;;;23.50;60.40;;;;;;5086094;27;20955;-73
2022/07/01 05:12:36;;;;;;;2.10;1.10;;;23.60;60.50;;;;;;5085476;28;20036;-73
2022/07/01 05:15:03;;;;;;;1.30;1.00;;;23.50;60.40;;;;;;5084997;28;20585;-73
2022/07/01 05:22:56;;;;;;;1.33;1.20;;;23.50;60.40;;;;;;5083909;28;20052;-72
2022/07/01 05:25:24;;;;;;;1.88;1.50;;;23.50;60.40;;;;;;5085003;28;20123;-73
2022/07/01 05:27:51;;;;;;;3.22;1.73;;;23.50;60.40;;;;;;5085826;28;20151;-73
2022/07/01 05:30:17;;;;;;;2.35;1.77;;;23.50;60.40;;;;;;5084882;28;20056;-73
2022/07/01 05:32:44;;;;;;;2.33;1.90;;;23.50;60.30;;;;;;5081789;28;20127;-73
2022/07/01 05:35:11;;;;;;;3.03;2.10;;;23.50;60.30;;;;;;5084426;28;20335;-73
2022/07/01 05:37:39;;;;;;;2.33;1.83;;;23.50;60.30;;;;;;5084555;28;20066;-73
2022/07/01 05:40:07;;;;;;;4.00;2.50;;;23.50;60.20;;;;;;5084073;28;20067;-73
2022/07/01 05:42:35;;;;;;;5.00;2.35;;;23.50;60.20;;;;;;5076856;28;20075;-73
2022/07/01 05:45:02;;;;;;;3.25;1.85;;;23.40;60.20;;;;;;5069446;28;20156;-73
2022/07/01 05:47:28;;;;;;;2.10;1.88;;;23.50;60.20;;;;;;5077903;28;20055;-73
2022/07/01 05:49:55;;;;;;;2.22;1.75;;;23.40;60.10;;;;;;5074687;28;20063;-73
2022/07/01 05:52:22;;;;;;;3.88;1.90;;;23.50;60.80;;;;;;5070872;28;20556;-73
2022/07/01 05:54:49;;;;;;;2.30;1.88;;;23.40;60.20;;;;;;5067069;28;20052;-72
2022/07/01 05:57:16;;;;;;;2.78;2.10;;;23.40;60.20;;;;;;5067324;28;20076;-72
2022/07/01 05:59:44;;;;;;;2.28;1.90;;;23.40;60.20;;;;;;5067273;28;20083;-72
2022/07/01 06:02:10;;;;;;;2.53;2.00;;;23.50;60.20;;;;;;5068438;28;20087;-72
2022/07/01 06:04:37;;;;;;;2.25;1.70;;;23.40;60.20;;;;;;5077952;28;20580;-72
2022/07/01 06:07:04;;;;;;;3.03;2.10;;;23.40;60.20;;;;;;5075479;28;20485;-72
2022/07/01 06:09:31;;;;;;;2.35;2.05;;;23.40;60.20;;;;;;5074384;28;20051;-72
2022/07/01 06:11:58;;;;;;;2.47;2.05;;;23.40;60.20;;;;;;5071661;28;20052;-73
2022/07/01 06:14:25;;;;;;;2.35;1.90;;;23.40;60.20;;;;;;5072655;28;20059;-73
2022/07/01 06:16:53;;;;;;;5.20;3.03;;;23.40;60.20;;;;;;5057983;28;20512;-73
2022/07/01 06:19:20;;;;;;;2.28;1.95;;;23.40;60.10;;;;;;5071339;28;20055;-73
2022/07/01 06:21:47;;;;;;;2.72;2.42;;;23.40;60.10;;;;;;5059758;28;20483;-73
2022/07/01 06:24:13;;;;;;;3.85;2.20;;;23.40;60.10;;;;;;5060747;28;20045;-72
2022/07/01 06:26:40;;;;;;;3.22;2.20;;;23.40;60.10;;;;;;5058468;28;20057;-73
2022/07/01 06:29:07;;;;;;;2.85;2.33;;;23.40;60.10;;;;;;5059096;28;20051;-73
2022/07/01 06:31:34;;;;;;;2.83;2.50;;;23.40;60.10;;;;;;5058572;28;20068;-72
2022/07/01 06:34:02;;;;;;;2.85;2.40;;;23.40;60.10;;;;;;5067230;28;20061;-73
2022/07/01 06:36:28;;;;;;;3.17;2.42;;;23.40;60.10;;;;;;5065003;28;20049;-73
2022/07/01 06:38:55;;;;;;;3.47;2.35;;;23.40;60.10;;;;;;5058707;28;20244;-73
2022/07/01 06:41:28;;;;;;;3.95;2.00;;;23.40;60.10;;;;;;5059675;28;20057;-72
2022/07/01 06:43:55;;;;;;;2.50;1.95;;;23.40;60.10;;;;;;5060626;28;20486;-73
2022/07/01 06:46:22;;;;;;;2.40;2.20;;;23.40;60.10;;;;;;5049990;28;20132;-73
2022/07/01 06:48:48;;;;;;;4.25;2.10;;;23.40;60.10;;;;;;5054565;28;20473;-74
2022/07/01 06:51:17;;;;;;;4.07;3.35;;;23.40;60.10;;;;;;5049954;28;20057;-71
2022/07/01 06:53:44;;;;;;;5.88;3.90;;;23.40;60.00;;;;;;5050739;28;20178;-71
2022/07/01 06:56:11;;;;;;;4.53;3.40;;;23.40;60.00;;;;;;5060076;28;20521;-71
2022/07/01 06:58:38;;;;;;;5.28;2.70;;;23.50;60.10;;;;;;5057490;28;20127;-71
2022/07/01 07:01:05;;;;;;;3.67;2.58;;;23.50;60.00;;;;;;5056647;28;20064;-71
2022/07/01 07:03:32;;;;;;;4.95;2.60;;;23.50;60.00;;;;;;5069359;28;20058;-71
2022/07/01 07:06:00;;;;;;;4.90;2.95;;;23.50;60.00;;;;;;5065834;28;20052;-72
2022/07/01 07:08:28;;;;;;;5.07;2.85;;;23.50;60.00;;;;;;5055675;28;20049;-71
2022/07/01 07:10:55;;;;;;;5.57;3.10;;;23.50;60.00;;;;;;5049850;28;20164;-72
2022/07/01 07:13:21;;;;;;;3.58;3.20;;;23.50;60.00;;;;;;5049234;28;20059;-73
2022/07/01 07:15:48;;;;;;;9.15;3.22;;;23.60;59.90;;;;;;5049710;28;20406;-73
2022/07/01 07:18:15;;;;;;;5.18;3.03;;;23.60;59.90;;;;;;5068197;28;20135;-73
2022/07/01 07:20:41;;;;;;;4.40;3.50;;;23.60;59.80;;;;;;5069069;28;20044;-72
2022/07/01 07:23:08;;;;;;;6.18;3.35;;;23.60;59.70;;;;;;5069271;28;20144;-74
2022/07/01 07:25:36;;;;;;;6.25;3.45;;;23.60;59.60;;;;;;5069230;28;20122;-73
2022/07/01 07:28:03;;;;;;;4.55;3.55;;;23.70;59.60;;;;;;5051830;28;20069;-72
2022/07/01 07:30:30;;;;;;;5.43;3.58;;;23.70;59.60;;;;;;5055478;28;20055;-71
2022/07/01 07:32:57;;;;;;;3.53;2.65;;;23.70;59.50;;;;;;5069146;28;20052;-72
2022/07/01 07:35:23;;;;;;;5.43;4.18;;;23.70;59.40;;;;;;5069260;28;20052;-71
2022/07/01 07:37:50;;;;;;;7.97;4.43;;;23.70;59.40;;;;;;5055232;28;20060;-72
2022/07/01 07:40:18;;;;;;;7.75;3.10;;;23.70;59.40;;;;;;5049083;28;20504;-72
2022/07/01 07:42:47;;;;;;;5.40;4.10;;;23.70;59.40;;;;;;5050881;28;20045;-72
2022/07/01 07:45:14;;;;;;;6.07;3.17;;;23.70;59.40;;;;;;5061472;28;20621;-72
2022/07/01 07:47:42;;;;;;;6.40;3.60;;;23.70;59.40;;;;;;5058719;28;20053;-73
2022/07/01 07:50:09;;;;;;;5.97;3.33;;;23.70;59.30;;;;;;5059204;28;20497;-72
2022/07/01 07:52:36;;;;;;;5.95;4.28;;;23.70;59.30;;;;;;5051292;28;20650;-72
2022/07/01 07:55:03;;;;;;;8.30;4.53;;;23.70;59.20;;;;;;5048648;28;20091;-72
2022/07/01 07:57:30;;;;;;;6.28;3.70;;;23.70;59.20;;;;;;5053856;28;20565;-71
2022/07/01 07:59:58;;;;;;;6.72;4.55;;;23.70;59.20;;;;;;5069304;28;20079;-72
2022/07/01 08:02:25;;;;;;;9.00;4.40;;;23.70;59.10;;;;;;5067871;28;20549;-71
2022/07/01 08:04:52;;;;;;;7.43;4.28;;;23.70;59.10;;;;;;5052346;28;20052;-71
2022/07/01 08:07:19;;;;;;;4.97;3.88;;;23.80;59.10;;;;;;5059739;28;20600;-71
2022/07/01 08:09:47;;;;;;;10.75;3.90;;;23.70;59.10;;;;;;5053560;28;20044;-71
2022/07/01 08:12:14;;;;;;;7.45;3.40;;;23.80;59.10;;;;;;5059377;28;20413;-71
2022/07/01 08:14:41;;;;;;;10.27;3.35;;;23.80;59.00;;;;;;5054442;28;20061;-73
2022/07/01 08:17:09;;;;;;;3.95;3.15;;;23.80;58.90;;;;;;5048400;28;20151;-71
2022/07/01 08:19:36;;;;;;;7.60;3.10;;;23.90;58.90;;;;;;5048483;28;20061;-71
2022/07/01 08:22:03;;;;;;;5.35;3.20;;;23.90;58.90;;;;;;5059996;28;20135;-71
2022/07/01 08:24:29;;;;;;;5.53;3.20;;;23.90;58.90;;;;;;5051061;28;20119;-71
2022/07/01 08:26:56;;;;;;;6.10;2.90;;;23.90;58.90;;;;;;5056969;28;20494;-73
2022/07/01 08:29:23;;;;;;;6.05;3.22;;;23.90;58.90;;;;;;5054140;28;20041;-72
2022/07/01 08:31:50;;;;;;;5.22;3.08;;;23.90;58.80;;;;;;5054966;28;20142;-71
2022/07/01 08:34:18;;;;;;;4.32;2.85;;;23.90;58.80;;;;;;5054912;28;20082;-71
2022/07/01 08:36:45;;;;;;;5.22;3.00;;;24.00;58.80;;;;;;5058080;28;20506;-71
2022/07/01 08:39:11;;;;;;;4.80;2.78;;;24.00;58.80;;;;;;5055418;28;20136;-71
2022/07/01 08:41:41;;;;;;;4.53;2.70;;;24.00;58.70;;;;;;5052279;28;20059;-71
2022/07/01 08:44:08;;;;;;;2.63;2.42;;;24.20;58.70;;;;;;5057471;28;20573;-71
2022/07/01 08:46:35;;;;;;;4.25;2.70;;;24.10;58.70;;;;;;5053514;28;20079;-71
2022/07/01 08:49:02;;;;;;;3.10;2.80;;;24.20;58.60;;;;;;5061395;28;20064;-73
2022/07/01 08:51:30;;;;;;;3.63;2.83;;;24.20;58.60;;;;;;5058790;28;20060;-72
2022/07/01 08:53:56;;;;;;;5.45;2.92;;;24.30;58.50;;;;;;5056589;28;20131;-71
2022/07/01 08:56:41;;;;;;;3.45;2.22;;;24.30;58.40;;;;;;5057486;28;20514;-72
2022/07/01 08:59:09;;;;;;;3.40;2.38;;;24.30;58.40;;;;;;5052498;28;20070;-71
2022/07/01 09:01:35;;;;;;;2.65;2.30;;;24.30;58.40;;;;;;5052830;28;20560;-71
2022/07/01 09:04:14;;;;;;;5.85;2.58;;;24.30;58.40;;;;;;5055995;28;20063;-73
2022/07/01 09:06:42;;;;;;;3.75;2.33;;;24.30;58.30;;;;;;5054549;28;20055;-72
2022/07/01 09:09:13;;;;;;;2.85;2.55;;;24.30;58.30;;;;;;5055405;28;20057;-72
2022/07/01 09:11:45;;;;;;;4.35;2.65;;;24.30;58.30;;;;;;5056087;28;20090;-73
2022/07/01 09:14:12;;;;;;;2.80;2.50;;;24.30;58.30;;;;;;5057112;28;20139;-73
2022/07/01 09:16:42;;;;;;;4.75;2.80;;;24.20;58.20;;;;;;5059423;28;20242;-73
2022/07/01 09:19:09;;;;;;;2.70;2.40;;;24.30;58.20;;;;;;5063567;28;20067;-72
2022/07/01 09:21:36;;;;;;;3.17;2.60;;;24.30;58.10;;;;;;5054753;28;20632;-72
2022/07/01 09:24:06;;;;;;;3.35;2.65;;;24.30;58.10;;;;;;5057559;28;20049;-72
2022/07/01 09:26:33;;;;;;;2.55;2.20;;;24.40;58.10;;;;;;5056464;28;20529;-72
2022/07/01 09:29:00;;;;;;;4.03;2.53;;;24.30;58.10;;;;;;5056911;28;20064;-72
2022/07/01 09:31:32;;;;;;;3.22;2.55;;;24.40;58.10;;;;;;5054129;28;20052;-72
2022/07/01 09:34:06;;;;;;;2.85;2.50;;;24.40;58.00;;;;;;5049611;28;20513;-73
2022/07/01 09:36:33;;;;;;;3.20;2.60;;;24.40;57.90;;;;;;5054027;28;20448;-72
2022/07/01 09:39:05;;;;;;;2.92;2.60;;;24.50;58.00;;;;;;5056913;28;20131;-73
2022/07/01 09:41:36;;;;;;;2.55;2.20;;;24.50;57.90;;;;;;5053358;28;20103;-75
2022/07/01 09:44:05;;;;;;;4.10;2.63;;;24.50;57.90;;;;;;5055743;28;20053;-72
2022/07/01 09:46:32;;;;;;;3.15;2.50;;;24.50;57.90;;;;;;5056814;28;20187;-72
2022/07/01 09:48:59;;;;;;;3.03;2.40;;;24.50;57.80;;;;;;5058171;28;20056;-72
2022/07/01 09:51:26;;;;;;;3.25;2.40;;;24.50;57.80;;;;;;5056062;28;20072;-73
2022/07/01 09:53:52;;;;;;;2.67;2.35;;;24.50;57.80;;;;;;5056948;28;20157;-72
2022/07/01 09:56:21;;;;;;;3.75;2.55;;;24.60;57.90;;;;;;5059544;28;20062;-72
2022/07/01 09:58:48;;;;;;;4.07;2.53;;;24.50;57.80;;;;;;5062177;28;20057;-73
2022/07/01 10:01:15;;;;;;;2.97;2.20;;;24.50;57.80;;;;;;5058300;28;20075;-72
2022/07/01 10:03:42;;;;;;;2.85;2.50;;;24.50;57.80;;;;;;5060355;28;20049;-72
2022/07/01 10:06:32;;;;;;;3.08;2.60;;;24.60;57.80;;;;;;5058132;28;20067;-72
2022/07/01 10:09:03;;;;;;;2.35;2.15;;;24.60;57.70;;;;;;5061492;28;20132;-72
2022/07/01 10:11:58;;;;;;;2.72;2.45;;;24.50;57.80;;;;;;5060336;28;20052;-72
2022/07/01 10:14:24;;;;;;;3.40;2.40;;;24.60;57.70;;;;;;5060594;28;20050;-73
2022/07/01 10:16:52;;;;;;;2.45;2.20;;;24.60;57.80;;;;;;5060930;28;20477;-72
2022/07/01 10:19:28;;;;;;;2.65;2.45;;;24.60;57.80;;;;;;5059111;28;20143;-73
2022/07/01 10:21:58;;;;;;;2.50;2.30;;;24.60;57.70;;;;;;5061735;28;20094;-73
2022/07/01 10:24:25;;;;;;;3.28;2.65;;;24.60;57.70;;;;;;5064314;28;20056;-73
2022/07/01 10:26:54;;;;;;;3.22;2.50;;;24.60;57.60;;;;;;5063730;28;20558;-74
2022/07/01 10:29:31;;;;;;;4.03;2.75;;;24.60;57.60;;;;;;5061050;28;20061;-73
2022/07/01 10:32:02;;;;;;;3.95;2.58;;;24.60;57.40;;;;;;5066347;28;20061;-73
2022/07/01 10:34:34;;;;;;;3.83;3.03;;;24.60;57.40;;;;;;5060244;28;20132;-73
2022/07/01 10:37:02;;;;;;;3.00;2.53;;;24.60;57.30;;;;;;5059631;28;20056;-73
2022/07/01 10:39:29;;;;;;;4.22;2.65;;;24.60;57.30;;;;;;5061081;28;20060;-73
2022/07/01 10:42:02;;;;;;;3.65;2.67;;;24.60;57.30;;;;;;5052297;28;20596;-73
2022/07/01 10:44:29;;;;;;;3.00;2.38;;;24.60;57.20;;;;;;5050674;28;20049;-73
2022/07/01 10:46:59;;;;;;;3.72;2.50;;;24.60;57.20;;;;;;5049928;28;20412;-73
2022/07/01 10:50:06;;;;;;;4.22;2.47;;;24.60;57.20;;;;;;5050855;28;20546;-73
2022/07/01 10:52:33;;;;;;;3.05;2.30;;;24.60;57.10;;;;;;5062649;28;20055;-73
2022/07/01 10:55:00;;;;;;;4.18;2.50;;;24.60;57.20;;;;;;5056188;28;20057;-73
2022/07/01 10:57:33;;;;;;;3.55;2.60;;;24.60;57.20;;;;;;5058950;28;20060;-72
2022/07/01 11:00:31;;;;;;;5.75;2.42;;;24.60;57.10;;;;;;5049954;28;20080;-72
2022/07/01 11:03:12;;;;;;;3.10;2.50;;;24.60;57.10;;;;;;5059443;28;20139;-72
2022/07/01 11:05:39;;;;;;;2.92;2.50;;;24.60;57.20;;;;;;5058711;28;20083;-72
2022/07/01 11:08:07;;;;;;;4.60;2.40;;;24.60;57.30;;;;;;5059767;28;20099;-73
2022/07/01 11:10:33;;;;;;;5.45;2.50;;;24.60;57.30;;;;;;5060040;28;20056;-72
2022/07/01 11:13:02;;;;;;;4.05;2.40;;;24.60;57.30;;;;;;5055931;28;20063;-72
2022/07/01 11:15:29;;;;;;;5.75;2.53;;;24.60;57.30;;;;;;5059584;28;20140;-72
2022/07/01 11:17:56;;;;;;;3.58;2.40;;;24.60;57.20;;;;;;5058672;28;20063;-73
2022/07/01 11:20:23;;;;;;;2.88;2.30;;;24.60;57.20;;;;;;5054335;28;20052;-71
2022/07/01 11:22:52;;;;;;;3.47;2.30;;;24.60;57.20;;;;;;5055114;28;20061;-72
2022/07/01 11:25:19;;;;;;;5.53;2.53;;;24.60;57.20;;;;;;5060989;28;20055;-73
2022/07/01 11:27:47;;;;;;;5.88;2.47;;;24.60;57.20;;;;;;5057814;28;20060;-73
2022/07/01 11:30:15;;;;;;;2.50;2.30;;;24.60;57.20;;;;;;5039534;28;20055;-73
2022/07/01 11:32:43;;;;;;;3.72;2.58;;;24.60;57.10;;;;;;5065663;28;20062;-73
2022/07/01 11:40:49;;;;;;;4.03;2.50;;;24.70;57.10;;;;;;5067420;28;20044;-73
2022/07/01 11:43:20;;;;;;;3.38;2.38;;;24.60;57.10;;;;;;5069753;28;20051;-73
2022/07/01 11:45:48;;;;;;;4.13;2.33;;;24.70;57.10;;;;;;5069673;28;20507;-73
2022/07/01 11:48:32;;;;;;;3.15;2.40;;;24.70;57.00;;;;;;5068977;28;20052;-72
2022/07/01 11:50:59;;;;;;;2.97;2.40;;;24.80;56.90;;;;;;5048864;28;20073;-72
2022/07/01 11:53:26;;;;;;;6.95;2.08;;;24.80;56.80;;;;;;5048502;28;20053;-72
2022/07/01 11:55:52;;;;;;;3.05;2.50;;;24.80;56.70;;;;;;5048892;28;20056;-73
2022/07/01 11:58:19;;;;;;;2.85;2.30;;;24.80;56.50;;;;;;5048558;28;20140;-72
2022/07/01 12:00:47;;;;;;;4.43;2.58;;;24.80;56.50;;;;;;5049516;28;20136;-72
2022/07/01 12:03:14;;;;;;;5.63;2.50;;;24.80;56.50;;;;;;5068201;28;20083;-73
2022/07/01 12:05:40;;;;;;;5.65;2.33;;;24.90;56.50;;;;;;5068550;28;20058;-73
2022/07/01 12:08:07;;;;;;;6.22;2.90;;;24.90;56.40;;;;;;5068287;28;20408;-72
2022/07/01 12:10:34;;;;;;;5.35;2.33;;;24.90;56.50;;;;;;5061860;28;20052;-72
2022/07/01 12:13:01;;;;;;;4.40;2.35;;;24.90;56.40;;;;;;5054249;28;20052;-73
2022/07/01 12:15:28;;;;;;;5.40;2.58;;;24.90;56.40;;;;;;5053768;28;20136;-72
2022/07/01 12:18:07;;;;;;;7.60;2.60;;;24.80;56.50;;;;;;5057834;28;20433;-72
2022/07/01 12:20:34;;;;;;;15.00;3.53;;;24.90;56.80;;;;;;5048848;28;20051;-73
2022/07/01 12:23:12;;;;;;;13.18;3.22;;;24.90;57.00;;;;;;5046287;28;20171;-73
2022/07/01 12:25:39;;;;;;;11.00;3.83;;;24.90;57.20;;;;;;5046681;28;20049;-72
2022/07/01 12:28:06;;;;;;;9.68;3.70;;;24.90;57.40;;;;;;5045884;28;20057;-72
2022/07/01 12:30:33;;;;;;;16.23;4.00;;;24.90;57.40;;;;;;5046255;28;20128;-72
2022/07/01 12:33:10;;;;;;;14.43;4.03;;;24.90;57.50;;;;;;5046903;28;20056;-72
2022/07/01 12:35:42;;;;;;;14.13;3.60;;;24.90;57.40;;;;;;5046269;28;20494;-72
2022/07/01 12:38:15;;;;;;;8.77;3.28;;;24.90;57.50;;;;;;5046747;28;20131;-72
2022/07/01 12:40:42;;;;;;;10.20;3.55;;;25.00;57.50;;;;;;5048711;28;20052;-72
2022/07/01 12:43:28;;;;;;;7.95;2.67;;;24.90;57.50;;;;;;5048435;28;20048;-72
2022/07/01 12:45:55;;;;;;;5.38;3.10;;;24.90;57.50;;;;;;5048933;28;20056;-72
2022/07/01 12:48:23;;;;;;;7.65;2.83;;;24.90;57.40;;;;;;5058081;28;20055;-72
2022/07/01 12:50:53;;;;;;;10.65;2.72;;;24.90;57.20;;;;;;5069010;28;20036;-72
2022/07/01 12:53:20;;;;;;;9.07;3.05;;;24.90;57.20;;;;;;5066666;28;20045;-72
2022/07/01 12:55:48;;;;;;;13.32;3.30;;;24.90;57.30;;;;;;5068853;28;20575;-72
2022/07/01 12:58:15;;;;;;;10.85;3.10;;;24.90;57.40;;;;;;5067674;28;20082;-72
2022/07/01 13:00:43;;;;;;;8.05;2.90;;;24.90;57.50;;;;;;5066996;28;20049;-72
2022/07/01 13:03:09;;;;;;;9.27;3.13;;;24.80;57.50;;;;;;5066775;28;20064;-72
2022/07/01 13:05:39;;;;;;;9.10;2.70;;;24.80;57.50;;;;;;5067369;28;20461;-72
2022/07/01 13:08:06;;;;;;;5.32;2.50;;;24.80;57.30;;;;;;5062117;28;20493;-72
2022/07/01 13:10:33;;;;;;;6.28;2.60;;;24.80;57.30;;;;;;5054092;28;20564;-72
2022/07/01 13:12:59;;;;;;;5.78;2.53;;;24.80;57.10;;;;;;5051486;28;20052;-72
2022/07/01 13:15:26;;;;;;;4.95;2.45;;;24.80;57.00;;;;;;5067440;28;20413;-72
2022/07/01 13:17:53;;;;;;;3.92;2.30;;;24.80;57.00;;;;;;5067625;28;20056;-71
2022/07/01 13:20:20;;;;;;;4.85;2.72;;;24.80;56.90;;;;;;5063126;28;20490;-71
2022/07/01 13:22:48;;;;;;;7.22;2.40;;;24.80;56.90;;;;;;5057577;28;20048;-73
2022/07/01 13:25:15;;;;;;;6.22;2.40;;;24.90;56.90;;;;;;5047803;28;20045;-71
2022/07/01 13:27:44;;;;;;;4.72;2.22;;;24.90;56.80;;;;;;5062951;28;20063;-73
2022/07/01 13:30:12;;;;;;;4.57;2.10;;;24.90;56.80;;;;;;5056156;28;20054;-71
2022/07/01 13:32:39;;;;;;;6.05;2.33;;;24.90;56.70;;;;;;5059152;28;20128;-71
2022/07/01 13:35:07;;;;;;;5.40;2.53;;;24.90;56.80;;;;;;5065444;28;20052;-71
2022/07/01 13:37:34;;;;;;;4.20;2.13;;;24.90;56.70;;;;;;5065829;28;20048;-74
2022/07/01 13:40:02;;;;;;;7.13;2.40;;;24.90;56.70;;;;;;5054681;28;20144;-72
2022/07/01 13:42:29;;;;;;;4.72;2.28;;;24.90;56.70;;;;;;5051188;28;20124;-72
2022/07/01 13:44:56;;;;;;;6.13;2.20;;;24.90;56.70;;;;;;5051371;28;20132;-72
2022/07/01 13:47:23;;;;;;;6.85;2.00;;;24.90;56.80;;;;;;5054358;28;20062;-72
2022/07/01 13:49:50;;;;;;;3.38;1.95;;;24.80;56.60;;;;;;5070288;28;20062;-73
2022/07/01 13:52:17;;;;;;;4.28;1.80;;;24.90;56.70;;;;;;5070660;28;20056;-72
2022/07/01 13:54:44;;;;;;;2.90;2.08;;;24.90;56.60;;;;;;5070810;28;20056;-72
2022/07/01 13:57:12;;;;;;;5.15;2.10;;;24.90;56.60;;;;;;5070795;28;20076;-74
2022/07/01 13:59:39;;;;;;;5.88;2.55;;;24.90;56.50;;;;;;5058272;28;20041;-73
2022/07/01 14:02:06;;;;;;;3.97;2.10;;;24.90;56.50;;;;;;5062931;28;20420;-72
2022/07/01 14:04:32;;;;;;;6.70;2.00;;;24.90;56.50;;;;;;5070775;28;20699;-73
2022/07/01 14:06:59;;;;;;;8.25;2.05;;;24.90;56.50;;;;;;5070912;28;20135;-72
2022/07/01 14:09:26;;;;;;;4.15;1.80;;;24.90;56.50;;;;;;5069727;28;20516;-74
2022/07/01 14:11:52;;;;;;;3.25;2.00;;;24.90;56.50;;;;;;5070121;28;20052;-73
2022/07/01 14:14:20;;;;;;;5.05;2.00;;;24.90;56.50;;;;;;5070261;28;20056;-73
2022/07/01 14:16:47;;;;;;;3.45;1.80;;;24.90;56.50;;;;;;5070619;28;20143;-73
2022/07/01 14:19:14;;;;;;;5.85;1.85;;;24.90;56.50;;;;;;5060909;28;20499;-72
2022/07/01 14:21:41;;;;;;;3.55;1.80;;;24.90;56.50;;;;;;5064200;28;20485;-72
2022/07/01 14:24:08;;;;;;;3.30;1.60;;;24.90;56.50;;;;;;5070277;28;20080;-72
2022/07/01 14:26:34;;;;;;;4.05;1.90;;;24.90;56.50;;;;;;5070298;28;20051;-72
2022/07/01 14:29:01;;;;;;;3.17;1.70;;;25.00;56.50;;;;;;5062379;28;20059;-72
2022/07/01 14:31:29;;;;;;;3.80;1.67;;;25.00;56.50;;;;;;5050343;28;20144;-71
2022/07/01 14:33:56;;;;;;;4.93;1.60;;;25.00;56.50;;;;;;5067409;28;20067;-72
2022/07/01 14:36:22;;;;;;;2.75;1.73;;;25.00;56.50;;;;;;5070609;28;20056;-72
2022/07/01 14:38:49;;;;;;;2.83;1.50;;;25.00;56.50;;;;;;5069360;28;20144;-71
2022/07/01 14:41:16;;;;;;;3.28;1.58;;;25.00;56.50;;;;;;5060902;28;20131;-73
2022/07/01 14:43:43;;;;;;;3.08;1.60;;;25.00;56.50;;;;;;5051408;28;20095;-73
2022/07/01 14:46:13;;;;;;;3.08;1.70;;;25.00;56.40;;;;;;5050210;28;20106;-72
2022/07/01 14:48:42;;;;;;;3.55;1.60;;;24.90;56.30;;;;;;5063626;28;20060;-73
2022/07/01 14:51:08;;;;;;;3.05;1.50;;;25.00;56.50;;;;;;5069563;28;20052;-73
2022/07/01 14:53:35;;;;;;;2.92;1.80;;;25.00;56.30;;;;;;5069618;28;20553;-72
2022/07/01 14:56:02;;;;;;;3.30;1.40;;;25.00;56.30;;;;;;5069710;28;20076;-72
2022/07/01 14:58:29;;;;;;;3.33;1.92;;;25.00;56.30;;;;;;5069906;28;20051;-72
2022/07/01 15:00:55;;;;;;;2.35;1.60;;;25.00;56.30;;;;;;5069437;28;20083;-72
2022/07/01 15:03:22;;;;;;;6.43;1.80;;;25.00;56.30;;;;;;5068161;28;20072;-72
2022/07/01 15:05:50;;;;;;;3.92;1.73;;;25.00;56.30;;;;;;5069626;28;20159;-73
2022/07/01 15:08:17;;;;;;;2.63;1.60;;;25.00;56.30;;;;;;5069438;28;20058;-73
2022/07/01 15:10:46;;;;;;;2.72;1.55;;;25.00;56.30;;;;;;5069806;28;20056;-74
2022/07/01 15:13:13;;;;;;;2.58;1.40;;;24.90;56.20;;;;;;5062931;28;20139;-73